sensor_id;sensor_type;location;lat;lon;timestamp;P1;durP1;ratioP1;P2;durP2;ratioP2
21330;SDS011;10824;51.632;4.950;2024-01-10T00:02:24;2.28;;;1.95;;
21330;SDS011;10824;51.632;4.950;2024-01-10T00:05:04;1.65;;;1.55;;
21330;SDS011;10824;51.632;4.950;2024-01-10T00:07:33;3.00;;;2.22;;
21330;SDS011;10824;51.632;4.950;2024-01-10T00:10:03;0.88;;;0.88;;
21330;SDS011;10824;51.632;4.950;2024-01-10T00:12:31;4.20;;;2.15;;
21330;SDS011;10824;51.632;4.950;2024-01-10T00:15:05;2.50;;;1.60;;
21330;SDS011;10824;51.632;4.950;2024-01-10T00:17:34;5.18;;;1.70;;
21330;SDS011;10824;51.632;4.950;2024-01-10T00:20:03;1.15;;;0.82;;
21330;SDS011;10824;51.632;4.950;2024-01-10T00:22:32;1.95;;;1.55;;
21330;SDS011;10824;51.632;4.950;2024-01-10T00:25:07;1.75;;;1.60;;
21330;SDS011;10824;51.632;4.950;2024-01-10T00:27:36;2.00;;;1.00;;
21330;SDS011;10824;51.632;4.950;2024-01-10T00:30:03;2.58;;;1.15;;
21330;SDS011;10824;51.632;4.950;2024-01-10T00:32:37;1.63;;;1.30;;
21330;SDS011;10824;51.632;4.950;2024-01-10T00:35:05;2.70;;;1.80;;
21330;SDS011;10824;51.632;4.950;2024-01-10T00:37:36;4.00;;;2.45;;
21330;SDS011;10824;51.632;4.950;2024-01-10T00:40:04;3.30;;;1.58;;
21330;SDS011;10824;51.632;4.950;2024-01-10T00:42:32;3.72;;;1.83;;
21330;SDS011;10824;51.632;4.950;2024-01-10T00:45:01;1.60;;;0.90;;
21330;SDS011;10824;51.632;4.950;2024-01-10T00:47:31;0.93;;;0.93;;
21330;SDS011;10824;51.632;4.950;2024-01-10T00:50:01;2.05;;;1.20;;
21330;SDS011;10824;51.632;4.950;2024-01-10T00:52:32;1.30;;;0.90;;
21330;SDS011;10824;51.632;4.950;2024-01-10T00:55:07;2.15;;;1.95;;
21330;SDS011;10824;51.632;4.950;2024-01-10T00:57:37;2.33;;;1.25;;
21330;SDS011;10824;51.632;4.950;2024-01-10T01:00:08;2.17;;;1.40;;
21330;SDS011;10824;51.632;4.950;2024-01-10T01:02:37;2.47;;;1.75;;
21330;SDS011;10824;51.632;4.950;2024-01-10T01:05:09;4.40;;;2.55;;
21330;SDS011;10824;51.632;4.950;2024-01-10T01:07:43;3.45;;;2.03;;
21330;SDS011;10824;51.632;4.950;2024-01-10T01:10:16;5.18;;;1.73;;
21330;SDS011;10824;51.632;4.950;2024-01-10T01:12:46;1.90;;;1.67;;
21330;SDS011;10824;51.632;4.950;2024-01-10T01:15:13;3.83;;;2.03;;
21330;SDS011;10824;51.632;4.950;2024-01-10T01:17:42;1.20;;;1.10;;
21330;SDS011;10824;51.632;4.950;2024-01-10T01:20:10;2.80;;;1.90;;
21330;SDS011;10824;51.632;4.950;2024-01-10T01:22:43;1.35;;;1.20;;
21330;SDS011;10824;51.632;4.950;2024-01-10T01:25:11;3.50;;;1.15;;
21330;SDS011;10824;51.632;4.950;2024-01-10T01:27:40;1.95;;;1.00;;
21330;SDS011;10824;51.632;4.950;2024-01-10T01:30:08;2.83;;;2.10;;
21330;SDS011;10824;51.632;4.950;2024-01-10T01:32:38;2.83;;;1.20;;
21330;SDS011;10824;51.632;4.950;2024-01-10T01:35:05;3.70;;;1.70;;
21330;SDS011;10824;51.632;4.950;2024-01-10T01:37:34;1.63;;;1.35;;
21330;SDS011;10824;51.632;4.950;2024-01-10T01:40:08;5.53;;;1.50;;
21330;SDS011;10824;51.632;4.950;2024-01-10T01:42:37;2.05;;;1.63;;
21330;SDS011;10824;51.632;4.950;2024-01-10T01:45:06;1.65;;;1.30;;
21330;SDS011;10824;51.632;4.950;2024-01-10T01:47:39;2.67;;;1.65;;
21330;SDS011;10824;51.632;4.950;2024-01-10T01:50:13;2.25;;;1.55;;
21330;SDS011;10824;51.632;4.950;2024-01-10T01:52:42;2.85;;;1.95;;
21330;SDS011;10824;51.632;4.950;2024-01-10T01:55:12;1.90;;;1.80;;
21330;SDS011;10824;51.632;4.950;2024-01-10T01:57:41;2.42;;;1.38;;
21330;SDS011;10824;51.632;4.950;2024-01-10T02:00:11;3.42;;;1.73;;
21330;SDS011;10824;51.632;4.950;2024-01-10T02:02:40;4.28;;;1.70;;
21330;SDS011;10824;51.632;4.950;2024-01-10T02:05:14;4.25;;;1.48;;
21330;SDS011;10824;51.632;4.950;2024-01-10T02:07:47;2.17;;;1.25;;
21330;SDS011;10824;51.632;4.950;2024-01-10T02:10:15;2.00;;;1.50;;
21330;SDS011;10824;51.632;4.950;2024-01-10T02:12:44;4.47;;;2.08;;
21330;SDS011;10824;51.632;4.950;2024-01-10T02:15:14;1.65;;;1.27;;
21330;SDS011;10824;51.632;4.950;2024-01-10T02:17:45;1.95;;;1.38;;
21330;SDS011;10824;51.632;4.950;2024-01-10T02:20:14;3.30;;;1.20;;
21330;SDS011;10824;51.632;4.950;2024-01-10T02:22:44;2.30;;;1.77;;
21330;SDS011;10824;51.632;4.950;2024-01-10T02:25:14;4.85;;;1.42;;
21330;SDS011;10824;51.632;4.950;2024-01-10T02:27:47;2.65;;;1.83;;
21330;SDS011;10824;51.632;4.950;2024-01-10T02:30:15;4.88;;;1.25;;
21330;SDS011;10824;51.632;4.950;2024-01-10T02:32:43;5.45;;;1.67;;
21330;SDS011;10824;51.632;4.950;2024-01-10T02:35:13;1.42;;;1.33;;
21330;SDS011;10824;51.632;4.950;2024-01-10T02:37:43;0.85;;;0.80;;
21330;SDS011;10824;51.632;4.950;2024-01-10T02:40:11;1.98;;;1.42;;
21330;SDS011;10824;51.632;4.950;2024-01-10T02:42:38;1.08;;;1.00;;
21330;SDS011;10824;51.632;4.950;2024-01-10T02:45:07;2.22;;;2.13;;
21330;SDS011;10824;51.632;4.950;2024-01-10T02:47:40;3.28;;;1.88;;
21330;SDS011;10824;51.632;4.950;2024-01-10T02:50:11;4.65;;;1.20;;
21330;SDS011;10824;51.632;4.950;2024-01-10T02:52:45;2.05;;;1.65;;
21330;SDS011;10824;51.632;4.950;2024-01-10T02:55:15;3.22;;;1.48;;
21330;SDS011;10824;51.632;4.950;2024-01-10T02:57:49;1.95;;;1.60;;
21330;SDS011;10824;51.632;4.950;2024-01-10T03:00:19;1.70;;;1.35;;
21330;SDS011;10824;51.632;4.950;2024-01-10T03:02:48;1.80;;;1.13;;
21330;SDS011;10824;51.632;4.950;2024-01-10T03:05:23;1.13;;;1.05;;
21330;SDS011;10824;51.632;4.950;2024-01-10T03:07:53;4.10;;;1.27;;
21330;SDS011;10824;51.632;4.950;2024-01-10T03:10:23;2.08;;;1.85;;
21330;SDS011;10824;51.632;4.950;2024-01-10T03:12:51;5.00;;;2.30;;
21330;SDS011;10824;51.632;4.950;2024-01-10T03:15:18;2.85;;;1.30;;
21330;SDS011;10824;51.632;4.950;2024-01-10T03:17:50;6.95;;;2.83;;
21330;SDS011;10824;51.632;4.950;2024-01-10T03:20:23;1.25;;;1.17;;
21330;SDS011;10824;51.632;4.950;2024-01-10T03:22:54;1.67;;;1.02;;
21330;SDS011;10824;51.632;4.950;2024-01-10T03:25:25;7.43;;;1.90;;
21330;SDS011;10824;51.632;4.950;2024-01-10T03:27:58;3.22;;;2.08;;
21330;SDS011;10824;51.632;4.950;2024-01-10T03:30:25;2.85;;;1.23;;
21330;SDS011;10824;51.632;4.950;2024-01-10T03:32:52;2.65;;;1.95;;
21330;SDS011;10824;51.632;4.950;2024-01-10T03:35:20;1.95;;;1.35;;
21330;SDS011;10824;51.632;4.950;2024-01-10T03:37:49;4.10;;;1.92;;
21330;SDS011;10824;51.632;4.950;2024-01-10T03:40:18;3.90;;;1.63;;
21330;SDS011;10824;51.632;4.950;2024-01-10T03:42:47;3.25;;;2.47;;
21330;SDS011;10824;51.632;4.950;2024-01-10T03:45:14;1.92;;;1.40;;
21330;SDS011;10824;51.632;4.950;2024-01-10T03:47:47;2.50;;;1.35;;
21330;SDS011;10824;51.632;4.950;2024-01-10T03:50:20;3.88;;;1.30;;
21330;SDS011;10824;51.632;4.950;2024-01-10T03:52:48;1.50;;;1.17;;
21330;SDS011;10824;51.632;4.950;2024-01-10T03:55:19;3.75;;;2.08;;
21330;SDS011;10824;51.632;4.950;2024-01-10T03:57:52;5.10;;;1.75;;
21330;SDS011;10824;51.632;4.950;2024-01-10T04:00:21;2.95;;;1.23;;
21330;SDS011;10824;51.632;4.950;2024-01-10T04:02:57;2.22;;;1.00;;
21330;SDS011;10824;51.632;4.950;2024-01-10T04:05:28;6.57;;;2.95;;
21330;SDS011;10824;51.632;4.950;2024-01-10T04:08:05;2.88;;;2.13;;
21330;SDS011;10824;51.632;4.950;2024-01-10T04:10:37;2.90;;;1.60;;
21330;SDS011;10824;51.632;4.950;2024-01-10T04:13:10;5.18;;;2.72;;
21330;SDS011;10824;51.632;4.950;2024-01-10T04:15:39;2.17;;;1.42;;
21330;SDS011;10824;51.632;4.950;2024-01-10T04:18:09;3.17;;;1.30;;
21330;SDS011;10824;51.632;4.950;2024-01-10T04:20:43;3.13;;;1.70;;
21330;SDS011;10824;51.632;4.950;2024-01-10T04:23:21;2.03;;;0.90;;
21330;SDS011;10824;51.632;4.950;2024-01-10T04:25:50;3.30;;;1.30;;
21330;SDS011;10824;51.632;4.950;2024-01-10T04:28:17;1.83;;;1.30;;
21330;SDS011;10824;51.632;4.950;2024-01-10T04:30:46;2.85;;;1.77;;
21330;SDS011;10824;51.632;4.950;2024-01-10T04:33:19;1.77;;;1.67;;
21330;SDS011;10824;51.632;4.950;2024-01-10T04:35:54;1.95;;;1.85;;
21330;SDS011;10824;51.632;4.950;2024-01-10T04:38:22;1.70;;;1.60;;
21330;SDS011;10824;51.632;4.950;2024-01-10T04:40:54;2.80;;;1.30;;
21330;SDS011;10824;51.632;4.950;2024-01-10T04:43:26;3.58;;;1.85;;
21330;SDS011;10824;51.632;4.950;2024-01-10T04:45:53;2.90;;;2.60;;
21330;SDS011;10824;51.632;4.950;2024-01-10T04:48:22;2.58;;;2.22;;
21330;SDS011;10824;51.632;4.950;2024-01-10T04:50:53;2.17;;;1.20;;
21330;SDS011;10824;51.632;4.950;2024-01-10T04:53:21;3.28;;;1.75;;
21330;SDS011;10824;51.632;4.950;2024-01-10T04:55:49;2.58;;;1.70;;
21330;SDS011;10824;51.632;4.950;2024-01-10T04:58:17;5.47;;;1.27;;
21330;SDS011;10824;51.632;4.950;2024-01-10T05:00:45;1.65;;;1.40;;
21330;SDS011;10824;51.632;4.950;2024-01-10T05:03:16;3.60;;;1.52;;
21330;SDS011;10824;51.632;4.950;2024-01-10T05:05:45;2.28;;;2.13;;
21330;SDS011;10824;51.632;4.950;2024-01-10T05:08:14;2.00;;;1.88;;
21330;SDS011;10824;51.632;4.950;2024-01-10T05:10:42;7.43;;;1.35;;
21330;SDS011;10824;51.632;4.950;2024-01-10T05:13:10;3.08;;;1.90;;
21330;SDS011;10824;51.632;4.950;2024-01-10T05:15:37;5.50;;;1.67;;
21330;SDS011;10824;51.632;4.950;2024-01-10T05:18:07;1.30;;;0.88;;
21330;SDS011;10824;51.632;4.950;2024-01-10T05:20:39;2.10;;;1.80;;
21330;SDS011;10824;51.632;4.950;2024-01-10T05:23:09;1.45;;;1.33;;
21330;SDS011;10824;51.632;4.950;2024-01-10T05:25:37;2.40;;;1.42;;
21330;SDS011;10824;51.632;4.950;2024-01-10T05:28:04;1.60;;;1.48;;
21330;SDS011;10824;51.632;4.950;2024-01-10T05:30:32;3.08;;;1.98;;
21330;SDS011;10824;51.632;4.950;2024-01-10T05:33:00;2.28;;;2.05;;
21330;SDS011;10824;51.632;4.950;2024-01-10T05:35:33;2.90;;;1.27;;
21330;SDS011;10824;51.632;4.950;2024-01-10T05:38:03;2.70;;;2.45;;
21330;SDS011;10824;51.632;4.950;2024-01-10T05:40:30;4.03;;;1.20;;
21330;SDS011;10824;51.632;4.950;2024-01-10T05:42:58;4.03;;;1.30;;
21330;SDS011;10824;51.632;4.950;2024-01-10T05:45:26;1.02;;;0.90;;
21330;SDS011;10824;51.632;4.950;2024-01-10T05:47:56;1.85;;;1.35;;
21330;SDS011;10824;51.632;4.950;2024-01-10T05:50:23;2.95;;;1.83;;
21330;SDS011;10824;51.632;4.950;2024-01-10T05:52:51;5.57;;;1.27;;
21330;SDS011;10824;51.632;4.950;2024-01-10T05:55:21;2.63;;;2.30;;
21330;SDS011;10824;51.632;4.950;2024-01-10T05:57:51;2.03;;;1.33;;
21330;SDS011;10824;51.632;4.950;2024-01-10T06:00:22;1.70;;;1.60;;
21330;SDS011;10824;51.632;4.950;2024-01-10T06:02:50;1.75;;;0.98;;
21330;SDS011;10824;51.632;4.950;2024-01-10T06:05:19;2.17;;;1.10;;
21330;SDS011;10824;51.632;4.950;2024-01-10T06:07:49;1.27;;;1.17;;
21330;SDS011;10824;51.632;4.950;2024-01-10T06:10:22;2.75;;;1.73;;
21330;SDS011;10824;51.632;4.950;2024-01-10T06:12:51;3.83;;;2.55;;
21330;SDS011;10824;51.632;4.950;2024-01-10T06:15:22;1.40;;;1.30;;
21330;SDS011;10824;51.632;4.950;2024-01-10T06:17:50;1.60;;;1.50;;
21330;SDS011;10824;51.632;4.950;2024-01-10T06:20:17;2.95;;;1.48;;
21330;SDS011;10824;51.632;4.950;2024-01-10T06:22:45;4.38;;;1.92;;
21330;SDS011;10824;51.632;4.950;2024-01-10T06:25:13;1.58;;;1.50;;
21330;SDS011;10824;51.632;4.950;2024-01-10T06:27:43;3.72;;;2.10;;
21330;SDS011;10824;51.632;4.950;2024-01-10T06:32:47;4.72;;;1.65;;
21330;SDS011;10824;51.632;4.950;2024-01-10T06:35:16;2.20;;;1.58;;
21330;SDS011;10824;51.632;4.950;2024-01-10T06:37:44;1.60;;;1.48;;
21330;SDS011;10824;51.632;4.950;2024-01-10T06:40:13;1.42;;;0.95;;
21330;SDS011;10824;51.632;4.950;2024-01-10T06:42:47;2.42;;;1.92;;
21330;SDS011;10824;51.632;4.950;2024-01-10T06:45:16;8.75;;;2.72;;
21330;SDS011;10824;51.632;4.950;2024-01-10T06:47:49;3.50;;;2.25;;
21330;SDS011;10824;51.632;4.950;2024-01-10T06:50:23;3.30;;;1.48;;
21330;SDS011;10824;51.632;4.950;2024-01-10T06:52:52;3.92;;;1.95;;
21330;SDS011;10824;51.632;4.950;2024-01-10T06:55:25;4.85;;;2.05;;
21330;SDS011;10824;51.632;4.950;2024-01-10T06:57:53;1.10;;;1.00;;
21330;SDS011;10824;51.632;4.950;2024-01-10T07:00:21;4.22;;;2.10;;
21330;SDS011;10824;51.632;4.950;2024-01-10T07:02:50;2.30;;;1.90;;
21330;SDS011;10824;51.632;4.950;2024-01-10T07:05:21;1.83;;;1.58;;
21330;SDS011;10824;51.632;4.950;2024-01-10T07:07:48;1.73;;;1.10;;
21330;SDS011;10824;51.632;4.950;2024-01-10T07:10:16;2.90;;;1.67;;
21330;SDS011;10824;51.632;4.950;2024-01-10T07:12:43;2.15;;;1.42;;
21330;SDS011;10824;51.632;4.950;2024-01-10T07:15:14;3.70;;;1.48;;
21330;SDS011;10824;51.632;4.950;2024-01-10T07:17:42;5.25;;;3.00;;
21330;SDS011;10824;51.632;4.950;2024-01-10T07:20:10;3.22;;;1.48;;
21330;SDS011;10824;51.632;4.950;2024-01-10T07:22:43;2.13;;;1.55;;
21330;SDS011;10824;51.632;4.950;2024-01-10T07:25:12;6.68;;;2.47;;
21330;SDS011;10824;51.632;4.950;2024-01-10T07:27:47;2.15;;;1.85;;
21330;SDS011;10824;51.632;4.950;2024-01-10T07:30:15;5.10;;;2.00;;
21330;SDS011;10824;51.632;4.950;2024-01-10T07:32:44;3.33;;;1.70;;
21330;SDS011;10824;51.632;4.950;2024-01-10T07:35:18;2.95;;;1.67;;
21330;SDS011;10824;51.632;4.950;2024-01-10T07:37:54;2.55;;;1.17;;
21330;SDS011;10824;51.632;4.950;2024-01-10T07:40:23;6.00;;;2.85;;
21330;SDS011;10824;51.632;4.950;2024-01-10T07:42:52;1.83;;;1.10;;
21330;SDS011;10824;51.632;4.950;2024-01-10T07:45:20;13.20;;;3.42;;
21330;SDS011;10824;51.632;4.950;2024-01-10T07:47:57;2.13;;;1.10;;
21330;SDS011;10824;51.632;4.950;2024-01-10T07:50:27;3.88;;;2.15;;
21330;SDS011;10824;51.632;4.950;2024-01-10T07:52:55;3.03;;;2.15;;
21330;SDS011;10824;51.632;4.950;2024-01-10T07:55:25;1.85;;;1.75;;
21330;SDS011;10824;51.632;4.950;2024-01-10T07:57:56;8.68;;;2.83;;
21330;SDS011;10824;51.632;4.950;2024-01-10T08:00:26;5.17;;;2.33;;
21330;SDS011;10824;51.632;4.950;2024-01-10T08:02:54;2.65;;;1.92;;
21330;SDS011;10824;51.632;4.950;2024-01-10T08:05:23;3.15;;;2.28;;
21330;SDS011;10824;51.632;4.950;2024-01-10T08:07:52;1.90;;;1.70;;
21330;SDS011;10824;51.632;4.950;2024-01-10T08:10:25;5.63;;;2.55;;
21330;SDS011;10824;51.632;4.950;2024-01-10T08:12:56;3.60;;;1.92;;
21330;SDS011;10824;51.632;4.950;2024-01-10T08:15:26;6.03;;;1.95;;
21330;SDS011;10824;51.632;4.950;2024-01-10T08:17:57;3.83;;;1.40;;
21330;SDS011;10824;51.632;4.950;2024-01-10T08:20:27;3.42;;;2.00;;
21330;SDS011;10824;51.632;4.950;2024-01-10T08:22:55;2.30;;;2.20;;
21330;SDS011;10824;51.632;4.950;2024-01-10T08:25:27;2.35;;;2.03;;
21330;SDS011;10824;51.632;4.950;2024-01-10T08:27:59;3.65;;;2.20;;
21330;SDS011;10824;51.632;4.950;2024-01-10T08:30:29;2.35;;;2.00;;
21330;SDS011;10824;51.632;4.950;2024-01-10T08:32:56;2.85;;;1.50;;
21330;SDS011;10824;51.632;4.950;2024-01-10T08:35:27;2.40;;;1.40;;
21330;SDS011;10824;51.632;4.950;2024-01-10T08:37:56;2.70;;;2.25;;
21330;SDS011;10824;51.632;4.950;2024-01-10T08:40:24;2.72;;;1.77;;
21330;SDS011;10824;51.632;4.950;2024-01-10T08:42:57;2.47;;;2.10;;
21330;SDS011;10824;51.632;4.950;2024-01-10T08:45:27;7.35;;;2.95;;
21330;SDS011;10824;51.632;4.950;2024-01-10T08:48:02;6.50;;;2.35;;
21330;SDS011;10824;51.632;4.950;2024-01-10T08:50:37;7.05;;;2.25;;
21330;SDS011;10824;51.632;4.950;2024-01-10T08:53:10;4.75;;;1.45;;
21330;SDS011;10824;51.632;4.950;2024-01-10T08:55:39;3.13;;;2.45;;
21330;SDS011;10824;51.632;4.950;2024-01-10T08:58:06;3.78;;;2.75;;
21330;SDS011;10824;51.632;4.950;2024-01-10T09:00:34;13.77;;;3.13;;
21330;SDS011;10824;51.632;4.950;2024-01-10T09:03:03;4.85;;;2.78;;
21330;SDS011;10824;51.632;4.950;2024-01-10T09:05:32;6.10;;;2.05;;
21330;SDS011;10824;51.632;4.950;2024-01-10T09:07:59;4.63;;;2.25;;
21330;SDS011;10824;51.632;4.950;2024-01-10T09:10:26;11.77;;;3.33;;
21330;SDS011;10824;51.632;4.950;2024-01-10T09:12:55;2.58;;;2.20;;
21330;SDS011;10824;51.632;4.950;2024-01-10T09:15:25;3.03;;;2.35;;
21330;SDS011;10824;51.632;4.950;2024-01-10T09:17:52;3.83;;;2.35;;
21330;SDS011;10824;51.632;4.950;2024-01-10T09:20:22;4.15;;;2.25;;
21330;SDS011;10824;51.632;4.950;2024-01-10T09:22:51;3.85;;;2.33;;
21330;SDS011;10824;51.632;4.950;2024-01-10T09:25:20;4.18;;;2.22;;
21330;SDS011;10824;51.632;4.950;2024-01-10T09:27:47;7.53;;;2.08;;
21330;SDS011;10824;51.632;4.950;2024-01-10T09:30:14;5.50;;;3.22;;
21330;SDS011;10824;51.632;4.950;2024-01-10T09:32:43;3.70;;;1.85;;
21330;SDS011;10824;51.632;4.950;2024-01-10T09:35:13;3.28;;;2.53;;
21330;SDS011;10824;51.632;4.950;2024-01-10T09:37:42;6.18;;;4.57;;
21330;SDS011;10824;51.632;4.950;2024-01-10T09:40:14;3.67;;;1.67;;
21330;SDS011;10824;51.632;4.950;2024-01-10T09:42:43;3.90;;;2.75;;
21330;SDS011;10824;51.632;4.950;2024-01-10T09:45:15;6.15;;;2.97;;
21330;SDS011;10824;51.632;4.950;2024-01-10T09:47:55;5.10;;;2.75;;
21330;SDS011;10824;51.632;4.950;2024-01-10T09:50:31;4.18;;;2.33;;
21330;SDS011;10824;51.632;4.950;2024-01-10T09:53:05;4.85;;;2.72;;
21330;SDS011;10824;51.632;4.950;2024-01-10T09:55:40;7.28;;;2.13;;
21330;SDS011;10824;51.632;4.950;2024-01-10T09:58:11;6.22;;;3.05;;
21330;SDS011;10824;51.632;4.950;2024-01-10T10:00:40;7.82;;;3.03;;
21330;SDS011;10824;51.632;4.950;2024-01-10T10:03:14;8.80;;;3.25;;
21330;SDS011;10824;51.632;4.950;2024-01-10T10:05:45;6.85;;;3.40;;
21330;SDS011;10824;51.632;4.950;2024-01-10T10:08:13;3.55;;;2.58;;
21330;SDS011;10824;51.632;4.950;2024-01-10T10:10:48;3.28;;;2.78;;
21330;SDS011;10824;51.632;4.950;2024-01-10T10:13:25;5.47;;;2.85;;
21330;SDS011;10824;51.632;4.950;2024-01-10T10:15:58;3.40;;;2.35;;
21330;SDS011;10824;51.632;4.950;2024-01-10T10:18:31;7.68;;;3.58;;
21330;SDS011;10824;51.632;4.950;2024-01-10T10:21:07;9.10;;;2.78;;
21330;SDS011;10824;51.632;4.950;2024-01-10T10:23:39;4.95;;;3.08;;
21330;SDS011;10824;51.632;4.950;2024-01-10T10:26:24;8.48;;;3.78;;
21330;SDS011;10824;51.632;4.950;2024-01-10T10:28:54;4.68;;;2.80;;
21330;SDS011;10824;51.632;4.950;2024-01-10T10:31:23;4.05;;;2.45;;
21330;SDS011;10824;51.632;4.950;2024-01-10T10:33:55;6.05;;;2.50;;
21330;SDS011;10824;51.632;4.950;2024-01-10T10:36:24;3.70;;;2.70;;
21330;SDS011;10824;51.632;4.950;2024-01-10T10:38:53;7.63;;;3.78;;
21330;SDS011;10824;51.632;4.950;2024-01-10T10:41:25;8.50;;;4.63;;
21330;SDS011;10824;51.632;4.950;2024-01-10T10:43:59;4.60;;;2.40;;
21330;SDS011;10824;51.632;4.950;2024-01-10T10:46:29;6.47;;;3.05;;
21330;SDS011;10824;51.632;4.950;2024-01-10T10:48:59;9.43;;;3.40;;
21330;SDS011;10824;51.632;4.950;2024-01-10T10:51:34;3.03;;;2.75;;
21330;SDS011;10824;51.632;4.950;2024-01-10T10:54:08;8.25;;;3.95;;
21330;SDS011;10824;51.632;4.950;2024-01-10T10:56:36;9.98;;;5.25;;
21330;SDS011;10824;51.632;4.950;2024-01-10T10:59:07;5.72;;;3.20;;
21330;SDS011;10824;51.632;4.950;2024-01-10T11:01:38;3.85;;;3.22;;
21330;SDS011;10824;51.632;4.950;2024-01-10T11:04:07;7.45;;;2.70;;
21330;SDS011;10824;51.632;4.950;2024-01-10T11:06:40;6.30;;;2.88;;
21330;SDS011;10824;51.632;4.950;2024-01-10T11:09:10;11.13;;;3.50;;
21330;SDS011;10824;51.632;4.950;2024-01-10T11:18:28;7.40;;;3.13;;
21330;SDS011;10824;51.632;4.950;2024-01-10T11:21:18;7.60;;;3.40;;
21330;SDS011;10824;51.632;4.950;2024-01-10T11:23:52;4.88;;;2.97;;
21330;SDS011;10824;51.632;4.950;2024-01-10T11:26:25;7.10;;;3.58;;
21330;SDS011;10824;51.632;4.950;2024-01-10T11:28:53;6.97;;;3.03;;
21330;SDS011;10824;51.632;4.950;2024-01-10T11:31:28;4.15;;;3.22;;
21330;SDS011;10824;51.632;4.950;2024-01-10T11:33:57;4.10;;;2.45;;
21330;SDS011;10824;51.632;4.950;2024-01-10T11:36:26;10.50;;;3.65;;
21330;SDS011;10824;51.632;4.950;2024-01-10T11:38:54;8.00;;;3.38;;
21330;SDS011;10824;51.632;4.950;2024-01-10T11:41:35;6.97;;;3.20;;
21330;SDS011;10824;51.632;4.950;2024-01-10T11:46:50;7.97;;;3.83;;
21330;SDS011;10824;51.632;4.950;2024-01-10T11:49:19;6.47;;;4.63;;
21330;SDS011;10824;51.632;4.950;2024-01-10T11:51:57;4.80;;;2.90;;
21330;SDS011;10824;51.632;4.950;2024-01-10T11:59:50;7.45;;;3.13;;
21330;SDS011;10824;51.632;4.950;2024-01-10T12:02:19;11.15;;;3.60;;
21330;SDS011;10824;51.632;4.950;2024-01-10T12:04:48;7.75;;;2.97;;
21330;SDS011;10824;51.632;4.950;2024-01-10T12:07:16;6.13;;;4.70;;
21330;SDS011;10824;51.632;4.950;2024-01-10T12:09:45;9.38;;;3.47;;
21330;SDS011;10824;51.632;4.950;2024-01-10T12:12:15;8.18;;;3.97;;
21330;SDS011;10824;51.632;4.950;2024-01-10T12:14:43;4.03;;;2.85;;
21330;SDS011;10824;51.632;4.950;2024-01-10T12:17:11;6.82;;;3.13;;
21330;SDS011;10824;51.632;4.950;2024-01-10T12:19:38;7.47;;;3.63;;
21330;SDS011;10824;51.632;4.950;2024-01-10T12:22:06;8.55;;;3.83;;
21330;SDS011;10824;51.632;4.950;2024-01-10T12:24:42;7.80;;;3.75;;
21330;SDS011;10824;51.632;4.950;2024-01-10T12:27:12;8.77;;;4.95;;
21330;SDS011;10824;51.632;4.950;2024-01-10T12:29:42;13.93;;;6.50;;
21330;SDS011;10824;51.632;4.950;2024-01-10T12:32:10;8.23;;;4.25;;
21330;SDS011;10824;51.632;4.950;2024-01-10T12:34:39;7.03;;;4.00;;
21330;SDS011;10824;51.632;4.950;2024-01-10T12:37:10;7.80;;;3.28;;
21330;SDS011;10824;51.632;4.950;2024-01-10T12:39:40;9.20;;;4.82;;
21330;SDS011;10824;51.632;4.950;2024-01-10T12:42:16;6.28;;;4.40;;
21330;SDS011;10824;51.632;4.950;2024-01-10T12:44:47;11.90;;;5.18;;
21330;SDS011;10824;51.632;4.950;2024-01-10T12:47:20;7.05;;;4.95;;
21330;SDS011;10824;51.632;4.950;2024-01-10T12:49:49;10.48;;;4.35;;
21330;SDS011;10824;51.632;4.950;2024-01-10T12:52:17;6.22;;;3.88;;
21330;SDS011;10824;51.632;4.950;2024-01-10T12:54:51;6.00;;;3.85;;
21330;SDS011;10824;51.632;4.950;2024-01-10T12:57:21;6.72;;;3.88;;
21330;SDS011;10824;51.632;4.950;2024-01-10T12:59:52;10.90;;;4.43;;
21330;SDS011;10824;51.632;4.950;2024-01-10T13:02:21;6.03;;;3.30;;
21330;SDS011;10824;51.632;4.950;2024-01-10T13:04:49;8.15;;;2.83;;
21330;SDS011;10824;51.632;4.950;2024-01-10T13:07:20;5.65;;;2.80;;
21330;SDS011;10824;51.632;4.950;2024-01-10T13:09:49;6.60;;;3.75;;
21330;SDS011;10824;51.632;4.950;2024-01-10T13:12:22;7.32;;;3.53;;
21330;SDS011;10824;51.632;4.950;2024-01-10T13:14:50;5.38;;;3.55;;
21330;SDS011;10824;51.632;4.950;2024-01-10T13:17:19;11.75;;;4.95;;
21330;SDS011;10824;51.632;4.950;2024-01-10T13:19:49;4.65;;;3.80;;
21330;SDS011;10824;51.632;4.950;2024-01-10T13:22:17;6.90;;;3.78;;
21330;SDS011;10824;51.632;4.950;2024-01-10T13:24:47;9.10;;;4.55;;
21330;SDS011;10824;51.632;4.950;2024-01-10T13:27:17;5.50;;;2.97;;
21330;SDS011;10824;51.632;4.950;2024-01-10T13:29:48;11.20;;;5.13;;
21330;SDS011;10824;51.632;4.950;2024-01-10T13:32:17;9.32;;;3.58;;
21330;SDS011;10824;51.632;4.950;2024-01-10T13:34:45;7.88;;;3.92;;
21330;SDS011;10824;51.632;4.950;2024-01-10T13:37:15;8.65;;;5.97;;
21330;SDS011;10824;51.632;4.950;2024-01-10T13:39:49;5.65;;;3.40;;
21330;SDS011;10824;51.632;4.950;2024-01-10T13:42:18;8.20;;;3.60;;
21330;SDS011;10824;51.632;4.950;2024-01-10T13:44:45;16.15;;;4.72;;
21330;SDS011;10824;51.632;4.950;2024-01-10T13:47:17;4.82;;;3.00;;
21330;SDS011;10824;51.632;4.950;2024-01-10T13:49:44;8.27;;;3.53;;
21330;SDS011;10824;51.632;4.950;2024-01-10T13:52:11;9.82;;;4.97;;
21330;SDS011;10824;51.632;4.950;2024-01-10T13:54:40;5.82;;;4.57;;
21330;SDS011;10824;51.632;4.950;2024-01-10T13:57:09;7.32;;;3.88;;
21330;SDS011;10824;51.632;4.950;2024-01-10T13:59:36;10.90;;;3.55;;
21330;SDS011;10824;51.632;4.950;2024-01-10T14:02:04;5.95;;;3.75;;
21330;SDS011;10824;51.632;4.950;2024-01-10T14:04:41;8.88;;;3.78;;
21330;SDS011;10824;51.632;4.950;2024-01-10T14:09:39;5.03;;;3.72;;
21330;SDS011;10824;51.632;4.950;2024-01-10T14:12:06;6.32;;;2.88;;
21330;SDS011;10824;51.632;4.950;2024-01-10T14:14:34;6.25;;;4.35;;
21330;SDS011;10824;51.632;4.950;2024-01-10T14:17:05;4.47;;;2.92;;
21330;SDS011;10824;51.632;4.950;2024-01-10T14:19:33;6.50;;;4.35;;
21330;SDS011;10824;51.632;4.950;2024-01-10T14:22:00;10.10;;;4.20;;
21330;SDS011;10824;51.632;4.950;2024-01-10T14:24:44;7.40;;;3.50;;
21330;SDS011;10824;51.632;4.950;2024-01-10T14:27:11;13.90;;;3.75;;
21330;SDS011;10824;51.632;4.950;2024-01-10T14:29:39;12.43;;;4.53;;
21330;SDS011;10824;51.632;4.950;2024-01-10T14:32:08;14.30;;;5.20;;
21330;SDS011;10824;51.632;4.950;2024-01-10T14:34:43;13.10;;;4.70;;
21330;SDS011;10824;51.632;4.950;2024-01-10T14:37:13;8.02;;;3.38;;
21330;SDS011;10824;51.632;4.950;2024-01-10T14:39:43;10.00;;;3.92;;
21330;SDS011;10824;51.632;4.950;2024-01-10T14:42:13;10.35;;;4.75;;
21330;SDS011;10824;51.632;4.950;2024-01-10T14:44:43;9.93;;;5.88;;
21330;SDS011;10824;51.632;4.950;2024-01-10T14:47:16;7.97;;;4.40;;
21330;SDS011;10824;51.632;4.950;2024-01-10T14:49:47;12.85;;;4.70;;
21330;SDS011;10824;51.632;4.950;2024-01-10T14:52:14;7.43;;;4.50;;
21330;SDS011;10824;51.632;4.950;2024-01-10T14:54:43;7.90;;;3.97;;
21330;SDS011;10824;51.632;4.950;2024-01-10T14:57:11;7.97;;;3.38;;
21330;SDS011;10824;51.632;4.950;2024-01-10T14:59:40;7.00;;;4.32;;
21330;SDS011;10824;51.632;4.950;2024-01-10T15:02:13;6.00;;;4.40;;
21330;SDS011;10824;51.632;4.950;2024-01-10T15:04:47;9.73;;;4.07;;
21330;SDS011;10824;51.632;4.950;2024-01-10T15:09:49;14.77;;;5.22;;
21330;SDS011;10824;51.632;4.950;2024-01-10T15:12:18;11.68;;;5.03;;
21330;SDS011;10824;51.632;4.950;2024-01-10T15:14:48;8.35;;;3.17;;
21330;SDS011;10824;51.632;4.950;2024-01-10T15:17:16;10.30;;;3.90;;
21330;SDS011;10824;51.632;4.950;2024-01-10T15:19:44;10.63;;;4.72;;
21330;SDS011;10824;51.632;4.950;2024-01-10T15:22:13;10.60;;;4.22;;
21330;SDS011;10824;51.632;4.950;2024-01-10T15:24:40;7.05;;;3.33;;
21330;SDS011;10824;51.632;4.950;2024-01-10T15:27:11;7.40;;;4.03;;